createdAt,value
2018-03-29T00:02:07.920Z,8.18
2018-03-29T00:05:30.777Z,8.16
2018-03-29T00:08:53.615Z,8.16
2018-03-29T00:12:16.498Z,8.19
2018-03-29T00:15:39.375Z,8.10
2018-03-29T00:19:02.233Z,8.06
2018-03-29T00:22:25.095Z,8.03
2018-03-29T00:25:47.939Z,8.06
2018-03-29T00:29:10.779Z,8.18
2018-03-29T00:32:33.616Z,7.99
2018-03-29T00:35:57.269Z,7.99
2018-03-29T00:39:20.111Z,7.86
2018-03-29T00:42:43.002Z,7.98
2018-03-29T00:46:06.619Z,7.80
2018-03-29T00:49:29.467Z,7.75
2018-03-29T00:52:52.316Z,7.65
2018-03-29T00:56:15.174Z,7.58
2018-03-29T00:59:38.001Z,7.52
2018-03-29T01:03:00.868Z,7.59
2018-03-29T01:06:23.738Z,7.66
2018-03-29T01:09:47.348Z,7.51
2018-03-29T01:13:11.329Z,7.54
2018-03-29T01:16:34.218Z,7.58
2018-03-29T01:19:57.065Z,7.57
2018-03-29T01:23:19.905Z,7.54
2018-03-29T01:26:43.576Z,7.69
2018-03-29T01:30:06.402Z,7.79
2018-03-29T01:33:30.063Z,7.79
2018-03-29T01:36:52.908Z,7.74
2018-03-29T01:40:15.736Z,7.87
2018-03-29T01:43:38.618Z,7.88
2018-03-29T01:47:01.463Z,7.81
2018-03-29T01:50:24.335Z,7.86
2018-03-29T01:53:47.274Z,7.95
2018-03-29T01:57:10.141Z,7.92
2018-03-29T02:00:32.994Z,7.90
2018-03-29T02:03:55.848Z,7.91
2018-03-29T02:07:18.667Z,7.95
2018-03-29T02:10:41.559Z,7.94
2018-03-29T02:14:04.513Z,8.03
2018-03-29T02:17:27.378Z,8.03
2018-03-29T02:20:50.231Z,8.02
2018-03-29T02:24:13.099Z,8.02
2018-03-29T02:27:36.722Z,8.03
2018-03-29T02:30:59.566Z,8.03
2018-03-29T02:34:22.418Z,8.11
2018-03-29T02:37:45.263Z,8.01
2018-03-29T02:41:08.118Z,8.00
2018-03-29T02:44:30.950Z,7.96
2018-03-29T02:47:53.813Z,7.98
2018-03-29T02:51:16.669Z,7.83
2018-03-29T02:54:39.491Z,7.93
2018-03-29T02:58:02.348Z,7.96
2018-03-29T03:01:25.202Z,7.97
2018-03-29T03:04:48.055Z,7.95
2018-03-29T03:08:11.117Z,7.89
2018-03-29T03:11:33.971Z,7.90
2018-03-29T03:14:56.823Z,7.91
2018-03-29T03:18:19.691Z,7.93
2018-03-29T03:21:43.296Z,7.96
2018-03-29T03:25:06.131Z,8.00
2018-03-29T03:28:29.001Z,8.06
2018-03-29T03:31:51.836Z,8.15
2018-03-29T03:35:14.771Z,8.17
2018-03-29T03:38:37.706Z,8.17
2018-03-29T03:42:00.517Z,8.23
2018-03-29T03:45:23.389Z,8.27
2018-03-29T03:48:46.209Z,8.18
2018-03-29T03:52:09.229Z,8.21
2018-03-29T03:55:32.098Z,8.29
2018-03-29T03:58:55.047Z,8.32
2018-03-29T04:02:18.658Z,8.25
2018-03-29T04:05:41.494Z,8.21
2018-03-29T04:09:04.345Z,8.14
2018-03-29T04:12:27.191Z,8.09
2018-03-29T04:15:50.045Z,7.85
2018-03-29T04:19:12.875Z,7.99
2018-03-29T04:22:36.530Z,7.98
2018-03-29T04:25:59.365Z,7.85
2018-03-29T04:29:22.222Z,8.00
2018-03-29T04:32:45.070Z,7.92
2018-03-29T04:36:07.923Z,8.11
2018-03-29T04:39:30.775Z,8.01
2018-03-29T04:42:53.617Z,8.08
2018-03-29T04:46:16.483Z,8.03
2018-03-29T04:49:39.322Z,8.03
2018-03-29T04:53:02.155Z,8.04
2018-03-29T04:56:25.017Z,8.09
2018-03-29T04:59:47.868Z,8.04
2018-03-29T05:03:10.823Z,8.06
2018-03-29T05:06:34.423Z,8.00
2018-03-29T05:09:57.281Z,7.89
2018-03-29T05:13:20.628Z,7.97
2018-03-29T05:16:43.893Z,8.07
2018-03-29T05:20:07.433Z,8.11
2018-03-29T05:23:30.833Z,8.09
2018-03-29T05:26:54.180Z,7.95
2018-03-29T05:30:17.567Z,8.05
2018-03-29T05:33:40.835Z,7.91
2018-03-29T05:37:04.247Z,7.68
2018-03-29T05:40:28.273Z,7.53
2018-03-29T05:43:51.558Z,7.60
2018-03-29T05:47:14.850Z,7.79
2018-03-29T05:50:38.149Z,7.82
2018-03-29T05:54:01.513Z,7.53
2018-03-29T05:57:24.358Z,7.58
2018-03-29T06:00:47.185Z,7.62
2018-03-29T06:04:10.025Z,7.67
2018-03-29T06:07:32.901Z,7.89
2018-03-29T06:10:55.726Z,8.05
2018-03-29T06:14:18.589Z,7.73
2018-03-29T06:17:41.410Z,7.86
2018-03-29T06:21:04.291Z,7.63
2018-03-29T06:24:27.115Z,7.83
2018-03-29T06:27:49.981Z,7.85
2018-03-29T06:31:12.816Z,7.91
2018-03-29T06:34:35.766Z,8.03
2018-03-29T06:37:58.609Z,8.03
2018-03-29T06:41:21.455Z,8.07
2018-03-29T06:44:44.287Z,8.19
2018-03-29T06:48:07.119Z,8.11
2018-03-29T06:51:30.719Z,8.12
2018-03-29T06:54:53.565Z,8.17
2018-03-29T06:58:16.409Z,8.24
2018-03-29T07:01:39.259Z,8.02
2018-03-29T07:05:02.117Z,8.09
2018-03-29T07:08:24.947Z,8.17
2018-03-29T07:11:48.554Z,8.25
2018-03-29T07:15:11.435Z,8.50
2018-03-29T07:18:34.228Z,8.70
2018-03-29T07:21:57.079Z,8.70
2018-03-29T07:25:19.963Z,8.57
2018-03-29T07:28:43.586Z,8.68
2018-03-29T07:32:06.492Z,8.86
2018-03-29T07:35:29.341Z,8.85
2018-03-29T07:38:52.184Z,8.82
2018-03-29T07:42:15.027Z,9.11
2018-03-29T07:45:38.679Z,9.31
2018-03-29T07:49:01.599Z,9.27
2018-03-29T07:52:24.506Z,9.13
2018-03-29T07:55:47.417Z,9.08
2018-03-29T07:59:11.040Z,9.17
2018-03-29T08:02:34.016Z,9.35
2018-03-29T08:05:56.879Z,9.29
2018-03-29T08:09:19.791Z,9.54
2018-03-29T08:12:42.641Z,9.64
2018-03-29T08:16:05.459Z,9.60
2018-03-29T08:19:28.312Z,9.84
2018-03-29T08:22:51.174Z,9.54
2018-03-29T08:26:14.010Z,9.71
2018-03-29T08:29:36.949Z,9.77
2018-03-29T08:32:59.809Z,9.49
2018-03-29T08:36:22.644Z,9.62
2018-03-29T08:39:45.490Z,9.85
2018-03-29T08:43:08.323Z,9.81
2018-03-29T08:46:31.266Z,9.80
2018-03-29T08:49:54.109Z,9.90
2018-03-29T08:53:16.967Z,9.96
2018-03-29T08:56:39.880Z,9.96
2018-03-29T09:00:02.794Z,10.02
2018-03-29T09:03:25.687Z,9.66
2018-03-29T09:06:49.389Z,9.50
2018-03-29T09:10:12.627Z,9.98
2018-03-29T09:13:36.318Z,9.99
2018-03-29T09:16:59.146Z,10.36
2018-03-29T09:20:21.977Z,10.13
2018-03-29T09:23:44.843Z,10.36
2018-03-29T09:27:07.715Z,10.32
2018-03-29T09:30:30.609Z,10.83
2018-03-29T09:33:53.466Z,10.94
2018-03-29T09:37:16.304Z,11.17
2018-03-29T09:40:39.168Z,11.13
2018-03-29T09:44:02.009Z,11.02
2018-03-29T09:47:24.845Z,10.76
2018-03-29T09:50:47.709Z,11.05
2018-03-29T09:54:10.560Z,11.63
2018-03-29T09:57:33.438Z,11.50
2018-03-29T10:01:02.466Z,11.92
2018-03-29T10:04:26.071Z,11.72
2018-03-29T10:07:48.921Z,11.88
2018-03-29T10:11:11.925Z,11.89
2018-03-29T10:14:34.840Z,11.93
2018-03-29T10:17:57.718Z,12.09
2018-03-29T10:21:21.316Z,12.00
2018-03-29T10:24:44.151Z,12.18
2018-03-29T10:28:06.991Z,12.32
2018-03-29T10:31:30.640Z,12.40
2018-03-29T10:34:54.273Z,12.53
2018-03-29T10:38:17.902Z,12.49
2018-03-29T10:41:40.735Z,12.37
2018-03-29T10:45:03.604Z,12.31
2018-03-29T10:48:26.461Z,12.35
2018-03-29T10:51:49.307Z,12.42
2018-03-29T10:55:12.165Z,12.26
2018-03-29T10:58:35.771Z,12.58
2018-03-29T11:01:58.594Z,12.60
2018-03-29T11:05:22.211Z,12.53
2018-03-29T11:08:45.483Z,12.74
2018-03-29T11:12:08.349Z,12.67
2018-03-29T11:15:31.222Z,12.54
2018-03-29T11:18:54.842Z,12.85
2018-03-29T11:22:17.674Z,12.68
2018-03-29T11:25:40.517Z,12.64
2018-03-29T11:29:03.373Z,12.68
2018-03-29T11:32:26.208Z,12.54
2018-03-29T11:35:50.675Z,12.79
2018-03-29T11:39:13.511Z,12.67
2018-03-29T11:42:36.345Z,12.50
2018-03-29T11:45:59.660Z,12.52
2018-03-29T11:49:22.503Z,12.56
2018-03-29T11:52:45.366Z,12.48
2018-03-29T11:56:08.211Z,12.43
2018-03-29T11:59:31.047Z,12.28
2018-03-29T12:02:53.874Z,12.41
2018-03-29T12:06:16.718Z,12.13
2018-03-29T12:09:40.321Z,12.15
2018-03-29T12:13:03.148Z,12.14
2018-03-29T12:16:25.982Z,12.30
2018-03-29T12:19:49.583Z,12.35
2018-03-29T12:23:12.401Z,12.42
2018-03-29T12:26:35.273Z,12.61
2018-03-29T12:29:58.564Z,12.95
2018-03-29T12:33:21.830Z,12.55
2018-03-29T12:36:45.110Z,12.56
2018-03-29T12:40:09.150Z,12.28
2018-03-29T12:43:31.996Z,12.30
2018-03-29T12:46:54.847Z,12.45
2018-03-29T12:50:17.690Z,12.62
2018-03-29T12:53:40.974Z,12.95
2018-03-29T12:57:22.248Z,12.73
2018-03-29T13:00:46.312Z,13.02
2018-03-29T13:04:09.609Z,12.63
2018-03-29T13:07:32.891Z,12.48
2018-03-29T13:10:56.184Z,12.28
2018-03-29T13:14:20.216Z,12.06
2018-03-29T13:17:43.490Z,12.09
2018-03-29T13:21:06.336Z,12.06
2018-03-29T13:24:30.418Z,11.95
2018-03-29T13:27:54.492Z,11.81
2018-03-29T13:31:17.776Z,11.33
2018-03-29T13:34:41.065Z,11.30
2018-03-29T13:38:05.141Z,11.12
2018-03-29T13:41:27.980Z,11.01
2018-03-29T13:44:51.307Z,11.00
2018-03-29T13:48:14.580Z,10.51
2018-03-29T13:51:38.627Z,9.81
2018-03-29T13:55:01.899Z,9.34
2018-03-29T13:58:25.185Z,9.12
2018-03-29T14:01:49.806Z,8.79
2018-03-29T14:05:13.101Z,8.40
2018-03-29T14:08:37.169Z,8.14
2018-03-29T14:12:00.490Z,8.25
2018-03-29T14:15:23.750Z,8.30
2018-03-29T14:18:47.885Z,8.22
2018-03-29T14:22:11.189Z,7.91
2018-03-29T14:25:34.479Z,7.87
2018-03-29T14:28:58.499Z,7.81
2018-03-29T14:32:22.558Z,7.77
2018-03-29T14:35:45.882Z,7.80
2018-03-29T14:39:09.175Z,7.79
2018-03-29T14:42:32.455Z,8.00
2018-03-29T14:45:55.815Z,8.21
2018-03-29T14:49:19.076Z,8.18
2018-03-29T14:52:43.133Z,8.21
2018-03-29T14:56:06.434Z,8.20
2018-03-29T14:59:30.488Z,8.38
2018-03-29T15:02:54.561Z,8.46
2018-03-29T15:06:17.874Z,8.11
2018-03-29T15:09:41.133Z,8.14
2018-03-29T15:13:04.413Z,8.03
2018-03-29T15:16:27.655Z,7.95
2018-03-29T15:19:50.941Z,7.98
2018-03-29T15:23:14.231Z,7.96
2018-03-29T15:26:37.501Z,7.61
2018-03-29T15:30:00.776Z,7.38
2018-03-29T15:33:24.089Z,7.50
2018-03-29T15:36:48.137Z,7.59
2018-03-29T15:40:11.484Z,7.65
2018-03-29T15:43:34.778Z,7.57
2018-03-29T15:46:58.102Z,7.77
2018-03-29T15:50:22.221Z,7.87
2018-03-29T15:53:45.561Z,8.00
2018-03-29T15:57:10.326Z,8.08
2018-03-29T16:00:33.834Z,8.29
2018-03-29T16:03:57.251Z,8.56
2018-03-29T16:07:20.547Z,8.82
2018-03-29T16:10:43.893Z,9.04
2018-03-29T16:14:07.204Z,9.21
2018-03-29T16:17:30.520Z,9.29
2018-03-29T16:20:53.811Z,9.45
2018-03-29T16:24:17.084Z,9.55
2018-03-29T16:27:40.382Z,9.51
2018-03-29T16:31:03.647Z,9.50
2018-03-29T16:34:26.500Z,9.07
2018-03-29T16:37:50.102Z,9.20
2018-03-29T16:41:13.745Z,9.19
2018-03-29T16:44:36.586Z,9.13
2018-03-29T16:47:59.432Z,8.95
2018-03-29T16:51:23.716Z,8.77
2018-03-29T16:54:46.594Z,8.81
2018-03-29T16:58:09.947Z,8.62
2018-03-29T17:01:33.321Z,8.64
2018-03-29T17:04:57.872Z,8.67
2018-03-29T17:08:21.945Z,8.53
2018-03-29T17:11:46.027Z,8.49
2018-03-29T17:15:10.136Z,8.43
2018-03-29T17:18:33.446Z,8.42
2018-03-29T17:21:58.981Z,8.33
2018-03-29T17:25:22.370Z,8.30
2018-03-29T17:28:45.682Z,8.39
2018-03-29T17:32:08.962Z,8.19
2018-03-29T17:35:32.248Z,8.17
2018-03-29T17:38:56.353Z,8.09
2018-03-29T17:42:19.671Z,8.20
2018-03-29T17:45:43.775Z,8.12
2018-03-29T17:49:07.045Z,8.06
2018-03-29T17:52:30.340Z,8.05
2018-03-29T17:55:53.623Z,7.98
2018-03-29T17:59:16.915Z,8.07
2018-03-29T18:02:40.348Z,7.98
2018-03-29T18:06:03.689Z,7.72
2018-03-29T18:09:27.124Z,7.82
2018-03-29T18:12:50.902Z,7.99
2018-03-29T18:16:15.016Z,7.93
2018-03-29T18:19:38.383Z,7.78
2018-03-29T18:23:01.710Z,7.80
2018-03-29T18:26:24.994Z,7.61
2018-03-29T18:29:48.286Z,7.48
2018-03-29T18:33:11.575Z,7.50
2018-03-29T18:36:34.922Z,7.31
2018-03-29T18:39:58.208Z,7.35
2018-03-29T18:43:21.524Z,7.31
2018-03-29T18:46:44.788Z,7.20
2018-03-29T18:50:08.130Z,7.21
2018-03-29T18:53:31.424Z,7.28
2018-03-29T18:56:54.707Z,7.39
2018-03-29T19:00:18.108Z,7.50
2018-03-29T19:03:42.186Z,7.54
2018-03-29T19:07:06.369Z,7.54
2018-03-29T19:10:30.469Z,7.41
2018-03-29T19:13:53.828Z,7.44
2018-03-29T19:17:17.090Z,7.56
2018-03-29T19:20:40.391Z,7.49
2018-03-29T19:24:04.695Z,7.43
2018-03-29T19:27:27.983Z,7.59
2018-03-29T19:30:51.352Z,7.75
2018-03-29T19:34:14.735Z,7.78
2018-03-29T19:37:38.847Z,7.56
2018-03-29T19:41:02.152Z,7.55
2018-03-29T19:44:26.445Z,7.66
2018-03-29T19:47:49.833Z,7.61
2018-03-29T19:51:13.937Z,7.61
2018-03-29T19:54:37.313Z,7.43
2018-03-29T19:58:00.681Z,7.32
2018-03-29T20:01:24.036Z,7.23
2018-03-29T20:04:47.405Z,7.16
2018-03-29T20:08:11.488Z,7.26
2018-03-29T20:11:34.873Z,7.03
2018-03-29T20:14:58.955Z,7.17
2018-03-29T20:18:22.523Z,7.17
2018-03-29T20:21:45.814Z,7.01
2018-03-29T20:25:09.107Z,7.06
2018-03-29T20:28:32.415Z,7.03
2018-03-29T20:31:55.848Z,6.87
2018-03-29T20:35:19.168Z,6.91
2018-03-29T20:38:42.470Z,6.87
2018-03-29T20:42:05.740Z,6.70
2018-03-29T20:45:29.037Z,6.75
2018-03-29T20:48:53.354Z,6.69
2018-03-29T20:52:16.674Z,6.67
2018-03-29T20:55:39.990Z,6.60
2018-03-29T20:59:03.665Z,6.56
2018-03-29T21:02:27.720Z,6.51
2018-03-29T21:05:51.084Z,6.57
2018-03-29T21:09:14.453Z,6.57
2018-03-29T21:12:37.775Z,6.51
2018-03-29T21:16:01.072Z,6.48
2018-03-29T21:19:24.361Z,6.46
2018-03-29T21:22:47.891Z,6.41
2018-03-29T21:26:12.359Z,6.38
2018-03-29T21:29:35.648Z,6.26
2018-03-29T21:32:58.960Z,6.21
2018-03-29T21:36:22.341Z,6.09
2018-03-29T21:39:46.371Z,6.08
2018-03-29T21:43:09.737Z,5.98
2018-03-29T21:46:33.037Z,5.99
2018-03-29T21:49:56.370Z,5.96
2018-03-29T21:53:19.645Z,5.97
2018-03-29T21:56:42.956Z,5.92
2018-03-29T22:00:08.153Z,5.89
2018-03-29T22:03:31.481Z,5.91
2018-03-29T22:06:54.754Z,5.86
2018-03-29T22:10:18.048Z,5.84
2018-03-29T22:13:50.123Z,5.76
2018-03-29T22:17:13.404Z,5.70
2018-03-29T22:20:36.827Z,5.75
2018-03-29T22:24:00.938Z,5.75
2018-03-29T22:27:24.359Z,5.66
2018-03-29T22:30:47.708Z,5.57
2018-03-29T22:34:11.062Z,5.51
2018-03-29T22:37:34.378Z,5.48
2018-03-29T22:40:57.705Z,5.43
2018-03-29T22:44:21.001Z,5.31
2018-03-29T22:47:44.582Z,5.23
2018-03-29T22:51:08.124Z,5.14
2018-03-29T22:54:31.493Z,5.21
2018-03-29T22:57:54.787Z,5.13
2018-03-29T23:01:18.062Z,5.15
2018-03-29T23:04:41.358Z,5.13
2018-03-29T23:08:04.637Z,5.13
2018-03-29T23:11:27.913Z,5.06
2018-03-29T23:14:51.201Z,4.98
2018-03-29T23:18:14.497Z,5.00
2018-03-29T23:21:37.784Z,4.76
2018-03-29T23:25:01.086Z,4.78
2018-03-29T23:28:24.430Z,4.87
2018-03-29T23:31:47.719Z,4.72
2018-03-29T23:35:11.046Z,4.78
2018-03-29T23:38:34.345Z,4.84
2018-03-29T23:41:57.618Z,4.78
2018-03-29T23:45:20.934Z,4.75
2018-03-29T23:48:44.302Z,4.74
2018-03-29T23:52:07.618Z,4.74
2018-03-29T23:55:30.916Z,4.71
2018-03-29T23:58:54.200Z,4.60
